createdAt,value
2023-04-16T00:01:13.370Z,11.23
2023-04-16T00:03:40.507Z,9.07
2023-04-16T00:06:07.559Z,6.40
2023-04-16T00:08:35.873Z,6.53
2023-04-16T00:11:02.809Z,9.55
2023-04-16T00:13:31.227Z,6.20
2023-04-16T00:15:59.071Z,6.97
2023-04-16T00:18:26.453Z,8.90
2023-04-16T00:20:54.603Z,10.70
2023-04-16T00:23:21.788Z,6.95
2023-04-16T00:25:49.038Z,5.27
2023-04-16T00:28:15.893Z,6.00
2023-04-16T00:30:42.780Z,6.97
2023-04-16T00:33:09.699Z,4.75
2023-04-16T00:35:36.690Z,7.85
2023-04-16T00:38:03.879Z,7.47
2023-04-16T00:40:30.926Z,7.88
2023-04-16T00:42:57.782Z,6.60
2023-04-16T00:45:24.640Z,7.63
2023-04-16T00:47:51.940Z,4.43
2023-04-16T00:50:19.084Z,5.20
2023-04-16T00:52:48.484Z,5.95
2023-04-16T00:55:18.577Z,4.95
2023-04-16T00:57:46.195Z,7.18
2023-04-16T01:00:13.620Z,5.05
2023-04-16T01:02:40.753Z,6.17
2023-04-16T01:05:07.951Z,3.83
2023-04-16T01:07:34.814Z,6.95
2023-04-16T01:10:02.232Z,6.63
2023-04-16T01:12:29.114Z,4.85
2023-04-16T01:14:56.973Z,6.83
2023-04-16T01:17:23.892Z,7.72
2023-04-16T01:19:50.734Z,4.53
2023-04-16T01:22:17.693Z,4.47
2023-04-16T01:24:45.581Z,4.63
2023-04-16T01:27:12.770Z,5.57
2023-04-16T01:29:39.618Z,7.45
2023-04-16T01:32:06.826Z,5.80
2023-04-16T01:34:40.358Z,6.32
2023-04-16T01:37:07.575Z,8.27
2023-04-16T01:39:34.859Z,6.57
2023-04-16T01:42:02.458Z,5.90
2023-04-16T01:44:30.976Z,7.45
2023-04-16T01:46:58.249Z,5.18
2023-04-16T01:49:25.817Z,8.63
2023-04-16T01:51:53.114Z,6.73
2023-04-16T01:54:19.985Z,9.43
2023-04-16T01:56:46.785Z,7.07
2023-04-16T01:59:13.807Z,6.07
2023-04-16T02:01:42.537Z,7.68
2023-04-16T02:04:10.441Z,7.00
2023-04-16T02:06:37.981Z,10.85
2023-04-16T02:09:04.852Z,9.18
2023-04-16T02:11:31.961Z,6.38
2023-04-16T02:13:59.125Z,6.72
2023-04-16T02:16:26.641Z,7.93
2023-04-16T02:18:59.099Z,9.30
2023-04-16T02:21:28.934Z,9.43
2023-04-16T02:23:56.008Z,7.20
2023-04-16T02:26:27.269Z,7.93
2023-04-16T02:28:57.879Z,5.23
2023-04-16T02:31:31.923Z,8.75
2023-04-16T02:33:59.649Z,8.13
2023-04-16T02:36:27.420Z,9.30
2023-04-16T02:38:55.272Z,6.07
2023-04-16T02:41:22.227Z,6.83
2023-04-16T02:43:49.109Z,9.25
2023-04-16T02:46:16.196Z,12.27
2023-04-16T02:48:43.075Z,8.13
2023-04-16T02:51:10.140Z,10.88
2023-04-16T02:53:37.166Z,9.50
2023-04-16T02:56:04.143Z,9.15
2023-04-16T02:58:31.038Z,8.77
2023-04-16T03:00:57.907Z,10.50
2023-04-16T03:03:25.066Z,6.88
2023-04-16T03:05:52.093Z,8.03
2023-04-16T03:08:19.132Z,9.52
2023-04-16T03:10:45.931Z,8.77
2023-04-16T03:13:14.378Z,8.73
2023-04-16T03:15:42.542Z,10.68
2023-04-16T03:18:09.347Z,9.60
2023-04-16T03:20:36.202Z,9.85
2023-04-16T03:23:03.100Z,7.75
2023-04-16T03:25:30.006Z,8.60
2023-04-16T03:27:57.166Z,12.00
2023-04-16T03:30:24.149Z,15.10
2023-04-16T03:32:51.970Z,11.40
2023-04-16T03:35:18.982Z,15.63
2023-04-16T03:37:46.020Z,10.15
2023-04-16T03:40:13.648Z,10.93
2023-04-16T03:42:40.574Z,10.87
2023-04-16T03:45:09.445Z,10.93
2023-04-16T03:47:37.289Z,10.10
2023-04-16T03:50:04.415Z,11.73
2023-04-16T03:52:31.528Z,10.80
2023-04-16T03:54:58.440Z,12.77
2023-04-16T03:57:27.828Z,16.27
2023-04-16T03:59:58.937Z,12.25
2023-04-16T04:02:28.973Z,11.50
2023-04-16T04:04:56.115Z,14.93
2023-04-16T04:07:23.530Z,13.57
2023-04-16T04:09:51.511Z,14.27
2023-04-16T04:12:18.431Z,12.05
2023-04-16T04:14:46.082Z,8.50
2023-04-16T04:17:13.134Z,16.17
2023-04-16T04:19:47.097Z,18.27
2023-04-16T04:22:18.014Z,14.65
2023-04-16T04:24:44.833Z,17.65
2023-04-16T04:27:12.058Z,19.27
2023-04-16T04:29:38.976Z,22.25
2023-04-16T04:32:06.360Z,17.93
2023-04-16T04:34:34.549Z,19.40
2023-04-16T04:37:01.758Z,12.60
2023-04-16T04:39:28.816Z,13.80
2023-04-16T04:41:55.794Z,11.18
2023-04-16T04:44:22.609Z,9.53
2023-04-16T04:46:49.707Z,13.05
2023-04-16T04:49:16.532Z,17.02
2023-04-16T04:51:43.565Z,16.27
2023-04-16T04:54:10.525Z,13.40
2023-04-16T04:56:37.350Z,13.70
2023-04-16T04:59:04.865Z,15.18
2023-04-16T05:01:33.431Z,16.75
2023-04-16T05:04:00.430Z,14.63
2023-04-16T05:06:29.455Z,16.10
2023-04-16T05:08:56.520Z,15.40
2023-04-16T05:11:23.527Z,14.75
2023-04-16T05:13:50.296Z,11.20
2023-04-16T05:16:17.302Z,18.35
2023-04-16T05:18:44.172Z,14.27
2023-04-16T05:21:10.974Z,13.57
2023-04-16T05:23:37.830Z,15.85
2023-04-16T05:26:05.337Z,19.58
2023-04-16T05:28:32.506Z,18.55
2023-04-16T05:30:59.374Z,18.38
2023-04-16T05:33:26.200Z,19.40
2023-04-16T05:35:53.276Z,20.60
2023-04-16T05:38:20.206Z,15.98
2023-04-16T05:40:47.146Z,24.50
2023-04-16T05:43:14.003Z,20.27
2023-04-16T05:45:41.477Z,24.37
2023-04-16T05:48:12.425Z,23.42
2023-04-16T05:50:39.412Z,22.33
2023-04-16T05:53:07.693Z,22.02
2023-04-16T05:55:39.208Z,22.00
2023-04-16T05:58:07.029Z,17.83
2023-04-16T06:00:33.983Z,18.45
2023-04-16T06:03:01.179Z,21.67
2023-04-16T06:05:28.664Z,16.85
2023-04-16T06:07:56.066Z,15.85
2023-04-16T06:10:23.126Z,20.37
2023-04-16T06:12:49.951Z,15.85
2023-04-16T06:15:16.730Z,24.50
2023-04-16T06:17:43.593Z,22.05
2023-04-16T06:20:11.366Z,21.00
2023-04-16T06:22:38.443Z,21.27
2023-04-16T06:25:05.884Z,18.52
2023-04-16T06:27:32.639Z,18.00
2023-04-16T06:29:59.419Z,18.58
2023-04-16T06:32:26.383Z,17.08
2023-04-16T06:34:53.309Z,17.10
2023-04-16T06:37:20.271Z,12.75
2023-04-16T06:39:47.614Z,20.05
2023-04-16T06:42:14.409Z,21.80
2023-04-16T06:44:41.337Z,19.10
2023-04-16T06:47:08.330Z,18.70
2023-04-16T06:49:35.601Z,18.77
2023-04-16T06:52:04.616Z,20.80
2023-04-16T06:54:32.776Z,19.38
2023-04-16T06:56:59.598Z,17.27
2023-04-16T06:59:26.326Z,18.90
2023-04-16T07:01:53.367Z,20.05
2023-04-16T07:04:20.695Z,18.58
2023-04-16T07:06:47.676Z,16.35
2023-04-16T07:09:14.529Z,17.67
2023-04-16T07:11:42.087Z,15.53
2023-04-16T07:14:08.977Z,14.52
2023-04-16T07:16:37.819Z,16.70
2023-04-16T07:19:06.555Z,18.80
2023-04-16T07:21:33.389Z,15.93
2023-04-16T07:24:00.986Z,18.57
2023-04-16T07:26:28.560Z,19.13
2023-04-16T07:28:55.499Z,17.08
2023-04-16T07:31:22.542Z,16.58
2023-04-16T07:33:49.466Z,20.80
2023-04-16T07:36:16.231Z,18.97
2023-04-16T07:38:43.352Z,17.63
2023-04-16T07:41:10.425Z,18.13
2023-04-16T07:43:37.399Z,16.77
2023-04-16T07:46:07.173Z,18.00
2023-04-16T07:48:34.055Z,18.37
2023-04-16T07:51:01.247Z,17.67
2023-04-16T07:53:28.108Z,19.70
2023-04-16T07:55:54.970Z,16.00
2023-04-16T07:58:21.849Z,19.17
2023-04-16T08:00:50.782Z,19.07
2023-04-16T08:03:18.635Z,18.10
2023-04-16T08:05:45.655Z,14.77
2023-04-16T08:08:12.616Z,11.95
2023-04-16T08:10:39.863Z,23.73
2023-04-16T08:13:06.934Z,13.23
2023-04-16T08:15:34.020Z,18.15
2023-04-16T08:18:00.989Z,13.75
2023-04-16T08:20:27.966Z,17.08
2023-04-16T08:22:54.929Z,17.75
2023-04-16T08:25:23.741Z,17.70
2023-04-16T08:27:51.148Z,22.73
2023-04-16T08:30:18.157Z,17.00
2023-04-16T08:32:45.988Z,19.05
2023-04-16T08:35:13.830Z,15.52
2023-04-16T08:37:40.750Z,22.70
2023-04-16T08:40:09.722Z,20.98
2023-04-16T08:42:53.960Z,16.35
2023-04-16T08:45:20.963Z,24.38
2023-04-16T08:47:50.264Z,20.10
2023-04-16T08:50:22.826Z,21.20
2023-04-16T08:52:57.121Z,14.07
2023-04-16T08:55:47.387Z,20.63
2023-04-16T08:58:21.246Z,16.60
2023-04-16T09:00:49.361Z,17.15
2023-04-16T09:03:16.590Z,13.83
2023-04-16T09:05:44.254Z,19.63
2023-04-16T09:08:12.758Z,19.27
2023-04-16T09:10:39.784Z,14.45
2023-04-16T09:13:08.337Z,19.38
2023-04-16T09:15:36.214Z,15.23
2023-04-16T09:18:03.514Z,16.20
2023-04-16T09:20:30.355Z,11.65
2023-04-16T09:22:57.492Z,14.63
2023-04-16T09:25:25.726Z,12.02
2023-04-16T09:27:52.866Z,13.33
2023-04-16T09:30:24.459Z,20.27
2023-04-16T09:32:53.294Z,16.13
2023-04-16T09:35:20.595Z,16.52
2023-04-16T09:37:58.198Z,17.90
2023-04-16T09:40:27.589Z,17.50
2023-04-16T09:42:58.578Z,17.13
2023-04-16T09:45:25.577Z,14.38
2023-04-16T09:47:52.485Z,18.38
2023-04-16T09:50:20.823Z,13.60
2023-04-16T09:52:51.705Z,13.80
2023-04-16T09:55:29.295Z,15.23
2023-04-16T09:58:01.065Z,15.20
2023-04-16T10:00:29.703Z,13.02
2023-04-16T10:03:07.722Z,14.05
2023-04-16T10:05:34.984Z,12.37
2023-04-16T10:08:02.351Z,12.80
2023-04-16T10:10:30.149Z,10.88
2023-04-16T10:12:58.017Z,11.82
2023-04-16T10:15:25.918Z,12.25
2023-04-16T10:17:54.323Z,12.20
2023-04-16T10:20:22.473Z,12.77
2023-04-16T10:22:49.930Z,12.63
2023-04-16T10:25:17.974Z,10.10
2023-04-16T10:27:45.898Z,13.07
2023-04-16T10:30:15.536Z,13.23
2023-04-16T10:32:43.575Z,14.77
2023-04-16T10:35:16.507Z,13.35
2023-04-16T10:37:45.108Z,11.93
2023-04-16T10:40:27.087Z,10.50
2023-04-16T10:42:58.660Z,9.40
2023-04-16T10:45:37.420Z,10.20
2023-04-16T10:48:09.982Z,9.43
2023-04-16T10:50:37.596Z,8.70
2023-04-16T10:53:22.698Z,12.07
2023-04-16T10:55:58.916Z,11.33
2023-04-16T10:58:34.972Z,11.63
2023-04-16T11:01:14.269Z,14.00
2023-04-16T11:03:48.388Z,13.65
2023-04-16T11:06:17.916Z,12.95
2023-04-16T11:08:54.120Z,19.03
2023-04-16T11:11:23.452Z,14.82
2023-04-16T11:13:54.915Z,12.57
2023-04-16T11:16:21.907Z,12.73
2023-04-16T11:18:51.548Z,13.93
2023-04-16T11:21:19.652Z,16.20
2023-04-16T11:23:53.540Z,14.98
2023-04-16T11:26:30.967Z,13.98
2023-04-16T11:28:58.941Z,17.88
2023-04-16T11:31:27.495Z,15.25
2023-04-16T11:33:56.814Z,13.77
2023-04-16T11:36:26.126Z,16.15
2023-04-16T11:39:02.583Z,15.48
2023-04-16T11:41:29.695Z,15.30
2023-04-16T11:43:57.041Z,16.05
2023-04-16T11:46:27.748Z,17.67
2023-04-16T11:48:56.287Z,13.77
2023-04-16T11:51:23.593Z,18.70
2023-04-16T11:53:53.180Z,17.77
2023-04-16T11:56:35.290Z,15.55
2023-04-16T11:59:20.050Z,20.30
2023-04-16T12:01:49.424Z,19.85
2023-04-16T12:04:18.841Z,18.02
2023-04-16T12:07:06.286Z,15.93
2023-04-16T12:09:37.041Z,16.10
2023-04-16T12:12:05.857Z,13.70
2023-04-16T12:14:33.153Z,14.85
2023-04-16T12:17:22.329Z,18.67
2023-04-16T12:19:56.353Z,14.60
2023-04-16T12:22:37.759Z,19.13
2023-04-16T12:25:12.605Z,22.20
2023-04-16T12:27:55.922Z,16.20
2023-04-16T12:30:26.350Z,19.60
2023-04-16T12:33:18.847Z,17.63
2023-04-16T12:35:45.973Z,20.10
2023-04-16T12:38:15.833Z,18.80
2023-04-16T12:40:42.988Z,19.70
2023-04-16T12:43:10.812Z,22.70
2023-04-16T12:45:39.852Z,20.90
2023-04-16T12:48:07.300Z,19.77
2023-04-16T12:50:34.609Z,18.97
2023-04-16T12:53:04.495Z,18.92
2023-04-16T12:55:32.189Z,18.60
2023-04-16T12:57:59.193Z,17.88
2023-04-16T13:00:26.366Z,18.02
2023-04-16T13:02:53.426Z,19.20
2023-04-16T13:05:20.477Z,16.90
2023-04-16T13:07:47.566Z,16.30
2023-04-16T13:10:14.468Z,21.55
2023-04-16T13:12:41.480Z,18.95
2023-04-16T13:15:09.539Z,16.40
2023-04-16T13:17:36.444Z,21.30
2023-04-16T13:20:03.692Z,16.13
2023-04-16T13:22:30.785Z,24.98
2023-04-16T13:24:57.809Z,16.45
2023-04-16T13:27:24.796Z,19.17
2023-04-16T13:29:51.822Z,12.90
2023-04-16T13:32:19.329Z,19.75
2023-04-16T13:34:46.385Z,23.92
2023-04-16T13:37:13.263Z,21.23
2023-04-16T13:39:40.192Z,14.30
2023-04-16T13:42:07.158Z,25.40
2023-04-16T13:44:34.280Z,23.27
2023-04-16T13:47:01.293Z,17.33
2023-04-16T13:49:28.404Z,16.70
2023-04-16T13:51:55.685Z,24.70
2023-04-16T13:54:22.627Z,18.45
2023-04-16T13:56:50.606Z,22.45
2023-04-16T13:59:18.368Z,20.77
2023-04-16T14:01:45.221Z,16.52
2023-04-16T14:04:12.195Z,15.67
2023-04-16T14:06:39.124Z,16.92
2023-04-16T14:09:06.063Z,21.95
2023-04-16T14:11:33.088Z,19.08
2023-04-16T14:14:00.180Z,18.75
2023-04-16T14:16:27.742Z,22.53
2023-04-16T14:18:54.768Z,21.50
2023-04-16T14:21:21.730Z,19.38
2023-04-16T14:23:48.765Z,17.75
2023-04-16T14:26:16.063Z,21.23
2023-04-16T14:28:42.965Z,20.20
2023-04-16T14:31:10.000Z,16.02
2023-04-16T14:33:37.025Z,17.90
2023-04-16T14:36:04.289Z,21.25
2023-04-16T14:38:31.405Z,18.65
2023-04-16T14:41:00.326Z,23.43
2023-04-16T14:43:27.571Z,20.52
2023-04-16T14:46:10.508Z,18.98
2023-04-16T14:48:37.474Z,19.20
2023-04-16T14:51:04.470Z,17.63
2023-04-16T14:53:32.073Z,17.07
2023-04-16T14:55:59.200Z,17.80
2023-04-16T14:58:26.685Z,17.60
2023-04-16T15:00:53.755Z,19.15
2023-04-16T15:03:21.366Z,21.13
2023-04-16T15:05:55.251Z,23.93
2023-04-16T15:08:23.543Z,17.98
2023-04-16T15:10:51.353Z,16.23
2023-04-16T15:13:18.295Z,21.30
2023-04-16T15:15:45.563Z,20.33
2023-04-16T15:18:12.539Z,18.47
2023-04-16T15:20:39.367Z,17.77
2023-04-16T15:23:06.450Z,20.42
2023-04-16T15:25:33.360Z,19.88
2023-04-16T15:28:02.639Z,21.88
2023-04-16T15:30:31.005Z,21.80
2023-04-16T15:32:57.891Z,17.92
2023-04-16T15:35:24.929Z,18.83
2023-04-16T15:37:52.804Z,19.17
2023-04-16T15:40:20.615Z,19.30
2023-04-16T15:42:47.476Z,20.07
2023-04-16T15:45:14.398Z,16.90
2023-04-16T15:47:42.124Z,17.45
2023-04-16T15:50:10.009Z,16.92
2023-04-16T15:52:38.703Z,16.55
2023-04-16T15:55:06.296Z,17.20
2023-04-16T15:57:33.116Z,20.08
2023-04-16T16:00:06.975Z,17.73
2023-04-16T16:02:34.668Z,17.95
2023-04-16T16:05:02.050Z,19.33
2023-04-16T16:07:29.230Z,20.27
2023-04-16T16:09:56.302Z,16.35
2023-04-16T16:12:23.956Z,23.80
2023-04-16T16:14:50.972Z,19.35
2023-04-16T16:17:19.152Z,23.00
2023-04-16T16:19:46.622Z,21.27
2023-04-16T16:22:13.963Z,18.77
2023-04-16T16:24:40.738Z,20.38
2023-04-16T16:27:07.615Z,24.67
2023-04-16T16:29:34.616Z,21.98
2023-04-16T16:32:01.608Z,22.03
2023-04-16T16:34:28.532Z,23.70
2023-04-16T16:36:55.481Z,25.92
2023-04-16T16:39:25.194Z,19.75
2023-04-16T16:41:55.154Z,19.00
2023-04-16T16:44:22.714Z,24.23
2023-04-16T16:46:50.496Z,18.60
2023-04-16T16:49:17.826Z,18.73
2023-04-16T16:51:48.374Z,16.15
2023-04-16T16:54:15.734Z,19.75
2023-04-16T16:56:42.671Z,19.17
2023-04-16T16:59:10.735Z,22.50
2023-04-16T17:01:38.036Z,20.88
2023-04-16T17:04:05.357Z,25.25
2023-04-16T17:06:33.494Z,18.17
2023-04-16T17:09:00.972Z,14.10
2023-04-16T17:11:29.351Z,16.35
2023-04-16T17:13:56.358Z,19.75
2023-04-16T17:16:23.924Z,18.23
2023-04-16T17:18:50.861Z,22.17
2023-04-16T17:21:17.733Z,23.13
2023-04-16T17:23:44.652Z,24.50
2023-04-16T17:26:11.728Z,22.33
2023-04-16T17:28:38.596Z,17.77
2023-04-16T17:31:08.415Z,21.98
2023-04-16T17:33:35.751Z,19.33
2023-04-16T17:36:02.859Z,17.95
2023-04-16T17:38:29.975Z,22.20
2023-04-16T17:40:57.932Z,21.92
2023-04-16T17:43:24.826Z,26.40
2023-04-16T17:45:52.073Z,23.77
2023-04-16T17:48:19.125Z,21.30
2023-04-16T17:50:45.984Z,20.13
2023-04-16T17:53:12.851Z,20.70
2023-04-16T17:55:39.814Z,21.42
2023-04-16T17:58:06.892Z,23.23
2023-04-16T18:00:34.014Z,22.05
2023-04-16T18:03:01.059Z,20.80
2023-04-16T18:05:30.617Z,24.33
2023-04-16T18:07:58.071Z,40.30
2023-04-16T18:10:25.268Z,22.47
2023-04-16T18:12:52.407Z,22.08
2023-04-16T18:15:19.329Z,21.48
2023-04-16T18:17:46.921Z,22.05
2023-04-16T18:20:17.018Z,23.30
2023-04-16T18:22:44.182Z,22.13
2023-04-16T18:25:12.107Z,25.48
2023-04-16T18:27:39.451Z,24.67
2023-04-16T18:30:06.825Z,21.88
2023-04-16T18:32:33.796Z,23.85
2023-04-16T18:35:01.227Z,27.23
2023-04-16T18:37:28.592Z,23.83
2023-04-16T18:39:57.782Z,22.50
2023-04-16T18:42:28.247Z,25.85
2023-04-16T18:44:55.573Z,20.48
2023-04-16T18:47:22.836Z,24.80
2023-04-16T18:49:49.842Z,24.45
2023-04-16T18:52:16.837Z,21.83
2023-04-16T18:54:44.407Z,24.30
2023-04-16T18:57:13.586Z,22.95
2023-04-16T18:59:40.924Z,21.87
2023-04-16T19:02:08.310Z,25.92
2023-04-16T19:04:35.450Z,22.25
2023-04-16T19:07:02.611Z,22.15
2023-04-16T19:09:30.746Z,23.98
2023-04-16T19:11:58.482Z,26.30
2023-04-16T19:14:25.408Z,25.20
2023-04-16T19:16:52.273Z,23.60
2023-04-16T19:19:19.303Z,26.33
2023-04-16T19:21:46.184Z,26.45
2023-04-16T19:24:13.336Z,24.43
2023-04-16T19:26:40.313Z,26.17
2023-04-16T19:29:07.218Z,28.23
2023-04-16T19:31:34.833Z,25.48
2023-04-16T19:34:01.778Z,25.15
2023-04-16T19:36:28.888Z,25.50
2023-04-16T19:38:55.725Z,22.45
2023-04-16T19:41:22.988Z,25.38
2023-04-16T19:43:49.940Z,24.23
2023-04-16T19:46:17.772Z,24.92
2023-04-16T19:48:44.833Z,22.43
2023-04-16T19:51:11.743Z,21.98
2023-04-16T19:53:38.665Z,23.58
2023-04-16T19:56:05.977Z,21.63
2023-04-16T19:58:33.717Z,22.85
2023-04-16T20:01:00.940Z,22.37
2023-04-16T20:03:28.202Z,23.58
2023-04-16T20:05:55.131Z,20.33
2023-04-16T20:08:22.044Z,22.90
2023-04-16T20:10:53.209Z,21.77
2023-04-16T20:13:20.067Z,22.87
2023-04-16T20:15:47.268Z,24.80
2023-04-16T20:18:14.018Z,24.65
2023-04-16T20:20:41.653Z,20.73
2023-04-16T20:23:08.475Z,24.92
2023-04-16T20:25:35.417Z,27.53
2023-04-16T20:28:02.235Z,32.05
2023-04-16T20:30:29.452Z,30.13
2023-04-16T20:32:56.910Z,29.70
2023-04-16T20:35:23.810Z,32.53
2023-04-16T20:37:50.802Z,23.10
2023-04-16T20:40:17.801Z,25.35
2023-04-16T20:42:47.663Z,28.02
2023-04-16T20:45:15.585Z,28.90
2023-04-16T20:47:43.449Z,28.05
2023-04-16T20:50:11.217Z,28.10
2023-04-16T20:52:38.194Z,28.33
2023-04-16T20:55:05.809Z,31.90
2023-04-16T20:57:33.102Z,33.33
2023-04-16T20:59:59.989Z,32.30
2023-04-16T21:02:28.211Z,32.23
2023-04-16T21:04:55.578Z,34.38
2023-04-16T21:07:22.536Z,34.50
2023-04-16T21:09:50.156Z,31.73
2023-04-16T21:12:17.082Z,30.00
2023-04-16T21:14:44.028Z,33.00
2023-04-16T21:17:10.796Z,35.08
2023-04-16T21:19:37.715Z,36.58
2023-04-16T21:22:04.918Z,38.20
2023-04-16T21:24:32.452Z,34.70
2023-04-16T21:26:59.301Z,29.50
2023-04-16T21:29:26.211Z,36.50
2023-04-16T21:31:53.640Z,38.17
2023-04-16T21:34:20.824Z,30.63
2023-04-16T21:36:47.766Z,32.47
2023-04-16T21:39:17.449Z,37.70
2023-04-16T21:41:44.293Z,38.38
2023-04-16T21:44:11.078Z,37.30
2023-04-16T21:46:38.413Z,34.25
2023-04-16T21:49:05.200Z,39.70
2023-04-16T21:51:32.013Z,31.03
2023-04-16T21:53:58.817Z,35.05
2023-04-16T21:56:26.071Z,32.08
2023-04-16T21:58:53.053Z,36.10
2023-04-16T22:01:20.085Z,32.20
2023-04-16T22:03:50.475Z,30.83
2023-04-16T22:06:17.880Z,33.88
2023-04-16T22:08:44.664Z,29.77
2023-04-16T22:11:12.073Z,30.23
2023-04-16T22:13:42.372Z,32.13
2023-04-16T22:16:11.581Z,37.00
2023-04-16T22:18:42.827Z,36.10
2023-04-16T22:21:09.805Z,31.73
2023-04-16T22:23:36.846Z,31.13
2023-04-16T22:26:04.097Z,30.92
2023-04-16T22:28:30.902Z,32.20
2023-04-16T22:30:57.783Z,34.88
2023-04-16T22:33:24.784Z,29.67
2023-04-16T22:35:51.638Z,28.75
2023-04-16T22:38:18.506Z,32.20
2023-04-16T22:40:49.055Z,34.07
2023-04-16T22:43:17.555Z,28.77
2023-04-16T22:45:46.251Z,27.17
2023-04-16T22:48:13.417Z,32.53
2023-04-16T22:50:41.379Z,33.17
2023-04-16T22:53:08.344Z,27.83
2023-04-16T22:55:35.154Z,28.88
2023-04-16T22:58:02.106Z,30.83
2023-04-16T23:00:29.621Z,26.02
2023-04-16T23:02:56.639Z,23.85
2023-04-16T23:05:24.090Z,29.13
2023-04-16T23:07:51.114Z,26.83
2023-04-16T23:10:18.064Z,29.98
2023-04-16T23:12:44.872Z,26.77
2023-04-16T23:15:11.782Z,30.45
2023-04-16T23:17:39.847Z,32.07
2023-04-16T23:20:07.850Z,34.17
2023-04-16T23:22:34.693Z,34.78
2023-04-16T23:25:01.767Z,29.73
2023-04-16T23:27:28.695Z,28.70
2023-04-16T23:29:55.837Z,29.10
2023-04-16T23:32:22.774Z,31.95
2023-04-16T23:34:49.953Z,30.92
2023-04-16T23:37:17.002Z,30.30
2023-04-16T23:39:44.473Z,33.10
2023-04-16T23:42:11.461Z,33.13
2023-04-16T23:44:38.397Z,31.98
2023-04-16T23:47:05.515Z,32.08
2023-04-16T23:49:32.446Z,35.40
2023-04-16T23:51:59.358Z,28.33
2023-04-16T23:54:26.381Z,32.93
2023-04-16T23:56:53.163Z,36.72
2023-04-16T23:59:20.077Z,31.42
